Morris, MN

6:11 PM CST on February 07, 2016 (GMT -0600)
APRSWXNET | | Change Station
CLOSE
Current Station
Personal Weather Station
Location: Morris, MN
Elevation: 1174 ft
Nearby Weather Stations
Active Advisory: Winter Storm Warning Active Notice: Public Information Statement

Elev 1174 ft 45.59 °N, 95.90 °W | Updated 30 minutes ago

Light Snow
Light Snow
21 °F
Feels Like 8 °F
N
15
Wind Variable Wind from WNW
Gusts 0.0 mph

Today
High -- | Low -- °F
--% Chance of Precip.
Yesterday
High -- | Low -- °F
Precip. -- in
Pressure 29.83 in
Visibility 2.5 miles
Clouds Mostly Cloudy 2000 ft
Overcast 2700 ft
Windchill 8 °F
Dew Point 17 °F
Humidity 84%
Rainfall in
Snow Depth Not available.
7:37 AM 5:38 PM
Waning Crescent, 1% visible
METAR KMOX 072354Z AUTO 34025G31KT 2 1/2SM -SN BKN020 OVC027 M05/M08 A2983 RMK AO2 VIS 1 3/4V4
Pressure 29.83 in
Visibility 2.5 miles
Clouds Mostly Cloudy 2000 ft
Overcast 2700 ft
Windchill 8 °F
Dew Point 17 °F
Humidity 84%
Rainfall in
Snow Depth Not available.
7:37 AM 5:38 PM
Waning Crescent, 1% visible
METAR KMOX 072354Z AUTO 34025G31KT 2 1/2SM -SN BKN020 OVC027 M05/M08 A2983 RMK AO2 VIS 1 3/4V4

10-Day Weather Forecast

Almanac

Astronomy

Feb. 07, 2016 Rise Set
Actual Time
Civil Twilight
Nautical Twilight
Astronomical Twilight
Moon
Length of Visible Light
Length of Day
Tomorrow will be .
, % of the Moon is Illuminated

Today's Extremes

State Highs State Lows

Community

WunderPhotos

Upload Photos

1,891,334 photos uploaded!

WunderBlog® & News

Nearby

Air Quality

  Air Quality AQ Index Pollutant
Not available.

Snow Depth

Station Depth Elevation

Earthquake Activity

City Distance Mag. Time & Date
Minimum magnitude displayed is 2.5.

Coastal Water Temperatures

Place Temperature

Stations

Nearby Weather Stations

Station Location Temp. Windchill Dew Point Humidity Wind Precip. Elev Updated Type
                   

Watches & Warnings

Winter Storm Warning
Issued: 12:59 PM CST Feb. 7, 2016 – National Weather Service

... Winter Storm Warning remains in effect until noon CST Monday...

A Winter Storm Warning remains in effect until noon CST Monday.

* Expect snow to develop around 2 PM and then diminish around
noon Monday.

* Total snow accumulations of up to 2 inches are expected.

* Winds gusting as high as 55 mph will cause widespread blowing
and drifting snow.

* Plan on slippery Road conditions.

Precautionary/preparedness actions...

A Winter Storm Warning for snow means severe winter weather
conditions are expected. If you must travel... keep an extra
flashlight... food... and water in your vehicle in case of an
emergency. The latest Road conditions for the state you are
calling from can be obtained by calling 5 1 1.